National Geographic Sea Bird — WAK8004 — position and weather

sailwx.info

Track history (hours):
 
Tides and Currents Weather Stations Pressure Air Temp Water Temp Dewpoint Dewpoint Depression Visibility Wind Speed Wind Dir Waves Ship Positions

National Geographic Sea Bird

Owner: Lindblad Expeditions, Inc., SEATTLE, WA. More information available from US FCC via Universal Licensing System and Coast Guard Vessel Documentation Center.

Last reported at 2017-Sep-22 02:00 UTC. Time now 2017-Sep-22 13:48 UTC.
Position N 46°15' W 123°42'.

Length 50 m; draft 2.7 m.

Type: Passenger vessel. MMSI: 366892350.

Date/timePositionNaut miles runAvg speedWind from/ knotsBaromVisibWave heightAir tempDewpointWater temp
2017-Sep-22 02:00N 46°15' W 123°42'4 7.8
2017-Sep-22 01:30N 46°13' W 123°47'3 6.8
2017-Sep-22 01:00N 46°12' W 123°51'0 0.7
2017-Sep-22 00:28N 46°11' W 123°52'0 0.0
2017-Sep-21 23:58N 46°11' W 123°52'0 0.0
2017-Sep-21 23:28N 46°11' W 123°52'0 0.0
2017-Sep-21 22:58N 46°11' W 123°52'0 0.0
2017-Sep-21 22:28N 46°11' W 123°52'0 0.0
2017-Sep-21 21:58N 46°11' W 123°52'0 0.0
2017-Sep-21 21:28N 46°11' W 123°52'0 0.0
2017-Sep-21 20:58N 46°11' W 123°52'0 0.0
2017-Sep-21 20:28N 46°11' W 123°52'0 0.0
2017-Sep-21 19:58N 46°11' W 123°52'0 0.0
2017-Sep-21 19:28N 46°11' W 123°52'0 0.0
2017-Sep-21 18:58N 46°11' W 123°52'0 0.0
2017-Sep-21 17:58N 46°11' W 123°52'0 0.0
2017-Sep-21 17:28N 46°11' W 123°52'0 0.0
2017-Sep-21 16:58N 46°11' W 123°52'0 0.0
2017-Sep-21 16:28N 46°11' W 123°52'0 0.0
2017-Sep-21 16:00N 46°11' W 123°52'0 0.0
2017-Sep-21 15:30N 46°11' W 123°52'0 0.0
2017-Sep-21 15:00N 46°11' W 123°52'0 0.9
2017-Sep-21 14:30N 46°11' W 123°52'4 7.5
2017-Sep-21 14:01N 46°13' W 123°47'3 6.8
2017-Sep-21 13:30N 46°14' W 123°43'0 0.6
2017-Sep-21 13:01N 46°15' W 123°42'4 8.0
2017-Sep-21 12:31N 46°15' W 123°37'4 7.2
2017-Sep-21 12:01N 46°16' W 123°32'3 6.3
2017-Sep-21 11:30N 46°15' W 123°27'3 6.5
2017-Sep-21 11:00N 46°12' W 123°26'3 5.9
2017-Sep-21 10:30N 46°10' W 123°24'3 5.1
2017-Sep-21 10:00N 46°09' W 123°21'3 5.4
2017-Sep-21 09:31N 46°09' W 123°17'3 5.5
2017-Sep-21 09:00N 46°10' W 123°13'3 5.8
2017-Sep-21 08:30N 46°11' W 123°10'3 6.3
2017-Sep-21 08:00N 46°10' W 123°05'4 7.5
2017-Sep-21 07:30N 46°08' W 123°01'4 7.5
2017-Sep-21 07:00N 46°06' W 122°57'1 2.6
2017-Sep-21 06:31N 46°05' W 122°55'2 4.7
2017-Sep-21 06:00N 46°03' W 122°53'4 7.5
2017-Sep-21 05:30N 45°60' W 122°51'4 7.5
2017-Sep-21 05:01N 45°57' W 122°48'4 7.4
2017-Sep-21 04:31N 45°53' W 122°48'3 6.9
2017-Sep-21 04:01N 45°49' W 122°48'4 7.1
2017-Sep-21 03:30N 45°46' W 122°46'4 7.2
2017-Sep-21 03:01N 45°43' W 122°46'4 8.1
2017-Sep-21 02:31N 45°38' W 122°47'4 6.9
2017-Sep-21 01:58N 45°35' W 122°45'3 6.6
2017-Sep-21 01:30N 45°33' W 122°42'3 5.2
2017-Sep-21 01:01N 45°31' W 122°40'0 0.0
2017-Sep-21 00:30N 45°31' W 122°40'0 0.0
2017-Sep-21 00:00N 45°31' W 122°40'0 0.0
2017-Sep-20 23:30N 45°31' W 122°40'0 0.0
2017-Sep-20 23:00N 45°31' W 122°40'0 0.0
2017-Sep-20 22:30N 45°31' W 122°40'0 0.0
2017-Sep-20 22:01N 45°31' W 122°40'0 0.0
2017-Sep-20 21:30N 45°31' W 122°40'0 0.0
2017-Sep-20 21:01N 45°31' W 122°40'0 0.0
2017-Sep-20 20:30N 45°31' W 122°40'0 0.0
2017-Sep-20 20:00N 45°31' W 122°40'0 0.0
2017-Sep-20 19:30N 45°31' W 122°40'0 0.0
2017-Sep-20 19:00N 45°31' W 122°40'0 0.0
2017-Sep-20 18:31N 45°31' W 122°40'0 0.0
2017-Sep-20 18:00N 45°31' W 122°40'0 0.0
2017-Sep-20 17:30N 45°31' W 122°40'0 0.0
2017-Sep-20 17:00N 45°31' W 122°40'0 0.0
2017-Sep-20 16:30N 45°31' W 122°40'0 0.0
2017-Sep-20 16:00N 45°31' W 122°40'0 0.0
2017-Sep-20 15:31N 45°31' W 122°40'0 0.0
2017-Sep-20 15:00N 45°31' W 122°40'0 0.1
2017-Sep-20 14:01N 45°31' W 122°40'3 5.1
2017-Sep-20 13:30N 45°33' W 122°42'4 8.1
2017-Sep-20 13:00N 45°35' W 122°46'3 6.7
2017-Sep-20 12:30N 45°39' W 122°46'5 9.6
2017-Sep-20 12:00N 45°44' W 122°46'510.1
2017-Sep-20 11:30N 45°48' W 122°48'5 9.5
2017-Sep-20 11:00N 45°53' W 122°48'510.2
2017-Sep-20 10:31N 45°58' W 122°49'510.5
2017-Sep-20 10:00N 46°03' W 122°53'510.0
2017-Sep-20 09:30N 46°06' W 122°58'510.4
2017-Sep-20 09:00N 46°10' W 123°04'5 9.9
2017-Sep-20 08:31N 46°11' W 123°11'510.6
2017-Sep-20 08:00N 46°09' W 123°18'5 9.9
2017-Sep-20 07:30N 46°10' W 123°24'5 9.8
2017-Sep-20 07:00N 46°15' W 123°26'4 8.9
2017-Sep-20 06:30N 46°16' W 123°32'4 7.7
2017-Sep-20 06:00N 46°16' W 123°38'510.6
2017-Sep-20 05:30N 46°13' W 123°45'510.7
2017-Sep-20 05:00N 46°12' W 123°52'5 9.8
2017-Sep-20 04:30N 46°14' W 123°58'5 9.2
2017-Sep-20 04:00N 46°15' W 124°05'4 8.6
2017-Sep-20 03:30N 46°13' W 124°10'3 6.7
2017-Sep-20 03:00N 46°15' W 124°14'4 8.1
2017-Sep-20 02:30N 46°19' W 124°16'4 8.9
2017-Sep-20 02:00N 46°23' W 124°19'4 8.0
2017-Sep-20 01:30N 46°27' W 124°21'4 7.9
2017-Sep-20 01:00N 46°30' W 124°24'4 8.3
2017-Sep-20 00:30N 46°34' W 124°26'4 8.2
2017-Sep-20 00:00N 46°38' W 124°29'4 8.1
2017-Sep-19 23:30N 46°42' W 124°31'4 8.6
2017-Sep-19 23:00N 46°45' W 124°34'4 8.9
2017-Sep-19 22:30N 46°50' W 124°36'86 9.5
2017-Sep-19 13:28N 48°13' W 125°04'510.2
2017-Sep-19 13:00N 48°18' W 125°02'5 9.8
2017-Sep-19 12:27N 48°23' W 124°58'4 9.4
2017-Sep-19 12:00N 48°26' W 124°55'5 9.9
2017-Sep-19 11:30N 48°27' W 124°47'5 9.4
2017-Sep-19 11:00N 48°25' W 124°41'5 9.8
2017-Sep-19 10:30N 48°23' W 124°34'510.2
2017-Sep-19 10:00N 48°21' W 124°27'5 9.9
2017-Sep-19 09:30N 48°19' W 124°20'510.0
2017-Sep-19 09:00N 48°17' W 124°13'5 9.4
2017-Sep-19 08:30N 48°15' W 124°07'7 9.1
2017-Sep-19 07:45N 48°12' W 123°57'2 9.2
2017-Sep-19 07:30N 48°12' W 123°54'510.4
2017-Sep-19 07:00N 48°12' W 123°46'611.4
2017-Sep-19 06:30N 48°11' W 123°38'611.1
2017-Sep-19 06:00N 48°11' W 123°29'510.6
2017-Sep-19 05:30N 48°11' W 123°21'611.9
2017-Sep-19 05:00N 48°12' W 123°13'712.1
2017-Sep-19 04:28N 48°13' W 123°03'612.0
2017-Sep-19 04:00N 48°12' W 122°55'612.3
2017-Sep-19 03:29N 48°11' W 122°45'813.3
2017-Sep-19 02:54N 48°05' W 122°38'512.9
2017-Sep-19 02:30N 47°60' W 122°36'612.0
2017-Sep-19 02:00N 47°56' W 122°29'611.4
2017-Sep-19 01:30N 47°50' W 122°27'611.1
2017-Sep-19 01:00N 47°45' W 122°26'611.0
2017-Sep-19 00:30N 47°39' W 122°27'3 6.1
2017-Sep-18 23:58N 47°38' W 122°23'0 0.0
2017-Sep-18 23:29N 47°38' W 122°23'0 0.0
2017-Sep-18 22:58N 47°38' W 122°23'0 0.0
2017-Sep-18 22:29N 47°38' W 122°23'0 0.0
2017-Sep-18 21:58N 47°38' W 122°23'0 0.0
2017-Sep-18 21:29N 47°38' W 122°23'0 0.0
2017-Sep-18 20:59N 47°38' W 122°23'0 0.0
2017-Sep-18 20:28N 47°38' W 122°23'0 0.0
2017-Sep-18 19:59N 47°38' W 122°23'0 0.0
2017-Sep-18 19:29N 47°38' W 122°23'0 0.0
2017-Sep-18 18:59N 47°38' W 122°23'0 0.0
2017-Sep-18 18:28N 47°38' W 122°23'0 0.0
2017-Sep-18 17:58N 47°38' W 122°23'0 0.0
2017-Sep-18 17:28N 47°38' W 122°23'0 0.0
2017-Sep-18 16:58N 47°38' W 122°23'0 0.0
2017-Sep-18 16:29N 47°38' W 122°23'1 1.1
2017-Sep-18 16:00N 47°37' W 122°22'1 1.6
2017-Sep-18 15:30N 47°37' W 122°21'0 0.0
2017-Sep-18 15:00N 47°37' W 122°21'0 0.0
2017-Sep-18 14:30N 47°37' W 122°21'0 0.0
2017-Sep-18 14:00N 47°37' W 122°21'2 4.0
2017-Sep-18 13:30N 47°37' W 122°24'3 6.6
2017-Sep-18 13:00N 47°39' W 122°28'3 6.7
2017-Sep-18 12:30N 47°43' W 122°28'3 6.5
2017-Sep-18 12:00N 47°46' W 122°28'3 6.8
2017-Sep-18 11:30N 47°49' W 122°28'3 6.8
2017-Sep-18 11:00N 47°52' W 122°29'3 6.7
2017-Sep-18 10:29N 47°55' W 122°32'3 6.7
2017-Sep-18 10:00N 47°58' W 122°35'4 6.7
2017-Sep-18 09:28N 48°01' W 122°38'3 7.3
2017-Sep-18 09:00N 48°04' W 122°40'5 6.8
2017-Sep-18 08:15N 48°08' W 122°44'0 1.0
2017-Sep-18 07:54N 48°08' W 122°44'0 0.4
2017-Sep-18 07:30N 48°08' W 122°45'0 0.1
2017-Sep-18 06:19N 48°08' W 122°45'2 3.8
2017-Sep-18 05:41N 48°10' W 122°47'13 6.3
2017-Sep-18 03:41N 48°20' W 122°59'4 8.3
2017-Sep-18 03:15N 48°23' W 122°58'2 9.2
2017-Sep-18 02:59N 48°25' W 122°57'510.4
2017-Sep-18 02:30N 48°30' W 122°58'3 0.8
2017-Sep-17 22:51N 48°32' W 123°01'1 3.5
2017-Sep-17 22:30N 48°33' W 122°59'3 4.9
2017-Sep-17 21:59N 48°35' W 123°02'3 6.1
2017-Sep-17 21:29N 48°37' W 123°05'4 7.6
2017-Sep-17 21:00N 48°39' W 123°10'3 5.4
2017-Sep-17 20:30N 48°38' W 123°06'5 9.6
2017-Sep-17 20:00N 48°41' W 122°60'4 8.8
2017-Sep-17 19:30N 48°46' W 122°59'4 7.6
2017-Sep-17 19:00N 48°49' W 123°02'5 9.5
2017-Sep-17 18:30N 48°52' W 123°07'5 9.7
2017-Sep-17 18:00N 48°55' W 123°13'4 7.8
2017-Sep-17 17:30N 48°59' W 123°15'3 5.7
2017-Sep-17 17:00N 49°01' W 123°18'4 8.0
2017-Sep-17 16:30N 49°02' W 123°24'4 8.6
2017-Sep-17 16:00N 49°05' W 123°29'5 8.9
2017-Sep-17 15:29N 49°08' W 123°34'4 8.5
2017-Sep-17 15:00N 49°11' W 123°38'4 8.4
2017-Sep-17 14:29N 49°13' W 123°44'4 8.5
2017-Sep-17 14:00N 49°14' W 123°50'5 9.1
2017-Sep-17 13:30N 49°16' W 123°56'510.0
2017-Sep-17 13:00N 49°18' W 124°03'5 9.5
2017-Sep-17 12:30N 49°20' W 124°10'5 9.0
2017-Sep-17 12:00N 49°23' W 124°16'4 8.9
2017-Sep-17 11:30N 49°26' W 124°20'4 8.5
2017-Sep-17 11:00N 49°29' W 124°25'4 8.5
2017-Sep-17 10:30N 49°32' W 124°29'4 8.9
2017-Sep-17 10:00N 49°36' W 124°34'4 9.0
2017-Sep-17 09:30N 49°38' W 124°39'4 8.7
2017-Sep-17 09:00N 49°41' W 124°45'4 8.4
2017-Sep-17 08:30N 49°44' W 124°49'4 8.5
2017-Sep-17 08:00N 49°47' W 124°54'5 8.9
2017-Sep-17 07:30N 49°50' W 124°58'4 8.8
2017-Sep-17 07:00N 49°54' W 125°03'5 8.9
2017-Sep-17 06:30N 49°57' W 125°07'4 9.2
2017-Sep-17 06:00N 50°00' W 125°12'510.2
2017-Sep-17 05:30N 50°05' W 125°16'5 9.0
2017-Sep-17 05:00N 50°07' W 125°21'5 9.2
2017-Sep-17 04:30N 50°12' W 125°22'5 9.3
2017-Sep-17 03:59N 50°17' W 125°24'4 8.0
2017-Sep-17 03:26N 50°20' W 125°28'4 8.1
2017-Sep-17 02:57N 50°22' W 125°34'23 7.5
2017-Sep-16 23:54N 50°28' W 126°08'4 9.1
2017-Sep-16 23:28N 50°29' W 126°14'3 5.8
2017-Sep-16 23:00N 50°30' W 126°18'5 9.2
2017-Sep-16 22:28N 50°30' W 126°26'5 9.9
2017-Sep-16 21:59N 50°30' W 126°34'5 9.7
2017-Sep-16 21:29N 50°32' W 126°41'5 9.7
2017-Sep-16 21:00N 50°34' W 126°48'1 1.1
2017-Sep-16 20:25N 50°33' W 126°49'2 4.3
2017-Sep-16 20:00N 50°33' W 126°51'3 5.9
2017-Sep-16 19:28N 50°35' W 126°56'0 0.0
2017-Sep-16 18:58N 50°35' W 126°56'0 0.0
2017-Sep-16 17:22N 50°35' W 126°56'0 0.0
2017-Sep-16 16:48N 50°35' W 126°56'0 0.0
2017-Sep-16 16:30N 50°35' W 126°56'0 0.0
2017-Sep-16 16:00N 50°35' W 126°56'0 0.0
2017-Sep-16 15:30N 50°35' W 126°56'0 0.0
2017-Sep-16 15:00N 50°35' W 126°56'0 0.0
2017-Sep-16 14:29N 50°35' W 126°56'4 8.2
2017-Sep-16 13:59N 50°36' W 127°02'5 9.6
2017-Sep-16 13:30N 50°37' W 127°09'4 7.6
2017-Sep-16 13:00N 50°40' W 127°14'4 8.1
2017-Sep-16 12:26N 50°44' W 127°17'3 7.5
2017-Sep-16 12:00N 50°47' W 127°20'4 7.3
2017-Sep-16 11:30N 50°50' W 127°22'4 7.3
2017-Sep-16 11:00N 50°53' W 127°25'4 7.3
2017-Sep-16 10:30N 50°55' W 127°30'4 7.2
2017-Sep-16 10:00N 50°58' W 127°33'4 7.3
2017-Sep-16 09:30N 51°01' W 127°36'4 7.7
2017-Sep-16 09:00N 51°04' W 127°41'4 8.4
2017-Sep-16 08:30N 51°07' W 127°46'5 9.7
2017-Sep-16 08:00N 51°10' W 127°52'5 9.3
2017-Sep-16 07:30N 51°13' W 127°57'3 6.7
2017-Sep-16 07:00N 51°16' W 127°55'3 6.1
2017-Sep-16 06:30N 51°19' W 127°56'511.1
2017-Sep-16 06:00N 51°24' W 127°52'611.0
2017-Sep-16 05:30N 51°29' W 127°51'510.3
2017-Sep-16 05:00N 51°34' W 127°52'611.1
2017-Sep-16 04:30N 51°40' W 127°54'611.1
2017-Sep-16 04:00N 51°45' W 127°55'510.9
2017-Sep-16 03:30N 51°51' W 127°56'510.5
2017-Sep-16 03:00N 51°56' W 127°56'510.2
2017-Sep-16 02:30N 52°01' W 127°56'4 8.9
2017-Sep-16 02:00N 52°05' W 128°00'5 9.6
2017-Sep-16 01:30N 52°06' W 128°07'4 8.4
2017-Sep-16 01:00N 52°10' W 128°08'4 7.9
2017-Sep-16 00:30N 52°14' W 128°11'510.3
2017-Sep-16 00:00N 52°15' W 128°20'6 9.4
2017-Sep-15 23:20N 52°18' W 128°28'410.3
2017-Sep-15 22:59N 52°21' W 128°31'4 9.4
2017-Sep-15 22:30N 52°25' W 128°29'78 6.3
2017-Sep-15 09:59N 53°25' W 129°55'911.4
2017-Sep-15 09:11N 53°31' W 130°06'210.6
2017-Sep-15 08:59N 53°32' W 130°08'1510.5
2017-Sep-15 07:32N 53°40' W 130°31'0 9.7
2017-Sep-15 07:30N 53°40' W 130°32'7 9.7
2017-Sep-15 06:47N 53°41' W 130°43'310.2
2017-Sep-15 06:30N 53°41' W 130°48'510.4
2017-Sep-15 06:00N 53°42' W 130°57'5 9.7
2017-Sep-15 05:29N 53°43' W 131°05'6 9.7
2017-Sep-15 04:53N 53°40' W 131°13'35 8.7
2017-Sep-15 00:53N 53°16' W 131°57'43 2.6
2017-Sep-14 08:22N 52°42' W 131°13'5 8.5
2017-Sep-14 07:50N 52°38' W 131°11'13 8.1
2017-Sep-14 06:12N 52°26' W 131°03'3 7.4
2017-Sep-14 05:49N 52°23' W 131°02'2 7.4
2017-Sep-14 05:30N 52°21' W 131°01'4 7.9
2017-Sep-14 05:00N 52°17' W 130°59'4 8.1
2017-Sep-14 04:30N 52°13' W 130°57'3 6.4
2017-Sep-14 04:00N 52°10' W 130°59'4 7.6
2017-Sep-14 03:30N 52°10' W 131°05'4 6.6
2017-Sep-14 02:51N 52°07' W 131°10'2 4.6
2017-Sep-14 02:29N 52°06' W 131°12'  
Track history (hours):
 
Tides and Currents Weather Stations Pressure Air Temp Water Temp Dewpoint Dewpoint Depression Visibility Wind Speed Wind Dir Waves Ship Positions

National Geographic Sea Bird

Owner: Lindblad Expeditions, Inc., SEATTLE, WA. More information available from US FCC via Universal Licensing System and Coast Guard Vessel Documentation Center.

Last reported at 2017-Sep-22 02:00 UTC. Time now 2017-Sep-22 13:48 UTC.
Position N 46°15' W 123°42'.

Length 50 m; draft 2.7 m.

Type: Passenger vessel. MMSI: 366892350.

Date/timePositionNaut miles runAvg speedWind from/ knotsBaromVisibWave heightAir tempDewpointWater temp
2017-Sep-22 02:00N 46°15' W 123°42'4 7.8
2017-Sep-22 01:30N 46°13' W 123°47'3 6.8
2017-Sep-22 01:00N 46°12' W 123°51'0 0.7
2017-Sep-22 00:28N 46°11' W 123°52'0 0.0
2017-Sep-21 23:58N 46°11' W 123°52'0 0.0
2017-Sep-21 23:28N 46°11' W 123°52'0 0.0
2017-Sep-21 22:58N 46°11' W 123°52'0 0.0
2017-Sep-21 22:28N 46°11' W 123°52'0 0.0
2017-Sep-21 21:58N 46°11' W 123°52'0 0.0
2017-Sep-21 21:28N 46°11' W 123°52'0 0.0
2017-Sep-21 20:58N 46°11' W 123°52'0 0.0
2017-Sep-21 20:28N 46°11' W 123°52'0 0.0
2017-Sep-21 19:58N 46°11' W 123°52'0 0.0
2017-Sep-21 19:28N 46°11' W 123°52'0 0.0
2017-Sep-21 18:58N 46°11' W 123°52'0 0.0
2017-Sep-21 17:58N 46°11' W 123°52'0 0.0
2017-Sep-21 17:28N 46°11' W 123°52'0 0.0
2017-Sep-21 16:58N 46°11' W 123°52'0 0.0
2017-Sep-21 16:28N 46°11' W 123°52'0 0.0
2017-Sep-21 16:00N 46°11' W 123°52'0 0.0
2017-Sep-21 15:30N 46°11' W 123°52'0 0.0
2017-Sep-21 15:00N 46°11' W 123°52'0 0.9
2017-Sep-21 14:30N 46°11' W 123°52'4 7.5
2017-Sep-21 14:01N 46°13' W 123°47'3 6.8
2017-Sep-21 13:30N 46°14' W 123°43'0 0.6
2017-Sep-21 13:01N 46°15' W 123°42'4 8.0
2017-Sep-21 12:31N 46°15' W 123°37'4 7.2
2017-Sep-21 12:01N 46°16' W 123°32'3 6.3
2017-Sep-21 11:30N 46°15' W 123°27'3 6.5
2017-Sep-21 11:00N 46°12' W 123°26'3 5.9
2017-Sep-21 10:30N 46°10' W 123°24'3 5.1
2017-Sep-21 10:00N 46°09' W 123°21'3 5.4
2017-Sep-21 09:31N 46°09' W 123°17'3 5.5
2017-Sep-21 09:00N 46°10' W 123°13'3 5.8
2017-Sep-21 08:30N 46°11' W 123°10'3 6.3
2017-Sep-21 08:00N 46°10' W 123°05'4 7.5
2017-Sep-21 07:30N 46°08' W 123°01'4 7.5
2017-Sep-21 07:00N 46°06' W 122°57'1 2.6
2017-Sep-21 06:31N 46°05' W 122°55'2 4.7
2017-Sep-21 06:00N 46°03' W 122°53'4 7.5
2017-Sep-21 05:30N 45°60' W 122°51'4 7.5
2017-Sep-21 05:01N 45°57' W 122°48'4 7.4
2017-Sep-21 04:31N 45°53' W 122°48'3 6.9
2017-Sep-21 04:01N 45°49' W 122°48'4 7.1
2017-Sep-21 03:30N 45°46' W 122°46'4 7.2
2017-Sep-21 03:01N 45°43' W 122°46'4 8.1
2017-Sep-21 02:31N 45°38' W 122°47'4 6.9
2017-Sep-21 01:58N 45°35' W 122°45'3 6.6
2017-Sep-21 01:30N 45°33' W 122°42'3 5.2
2017-Sep-21 01:01N 45°31' W 122°40'0 0.0
2017-Sep-21 00:30N 45°31' W 122°40'0 0.0
2017-Sep-21 00:00N 45°31' W 122°40'0 0.0
2017-Sep-20 23:30N 45°31' W 122°40'0 0.0
2017-Sep-20 23:00N 45°31' W 122°40'0 0.0
2017-Sep-20 22:30N 45°31' W 122°40'0 0.0
2017-Sep-20 22:01N 45°31' W 122°40'0 0.0
2017-Sep-20 21:30N 45°31' W 122°40'0 0.0
2017-Sep-20 21:01N 45°31' W 122°40'0 0.0
2017-Sep-20 20:30N 45°31' W 122°40'0 0.0
2017-Sep-20 20:00N 45°31' W 122°40'0 0.0
2017-Sep-20 19:30N 45°31' W 122°40'0 0.0
2017-Sep-20 19:00N 45°31' W 122°40'0 0.0
2017-Sep-20 18:31N 45°31' W 122°40'0 0.0
2017-Sep-20 18:00N 45°31' W 122°40'0 0.0
2017-Sep-20 17:30N 45°31' W 122°40'0 0.0
2017-Sep-20 17:00N 45°31' W 122°40'0 0.0
2017-Sep-20 16:30N 45°31' W 122°40'0 0.0
2017-Sep-20 16:00N 45°31' W 122°40'0 0.0
2017-Sep-20 15:31N 45°31' W 122°40'0 0.0
2017-Sep-20 15:00N 45°31' W 122°40'0 0.1
2017-Sep-20 14:01N 45°31' W 122°40'3 5.1
2017-Sep-20 13:30N 45°33' W 122°42'4 8.1
2017-Sep-20 13:00N 45°35' W 122°46'3 6.7
2017-Sep-20 12:30N 45°39' W 122°46'5 9.6
2017-Sep-20 12:00N 45°44' W 122°46'510.1
2017-Sep-20 11:30N 45°48' W 122°48'5 9.5
2017-Sep-20 11:00N 45°53' W 122°48'510.2
2017-Sep-20 10:31N 45°58' W 122°49'510.5
2017-Sep-20 10:00N 46°03' W 122°53'510.0
2017-Sep-20 09:30N 46°06' W 122°58'510.4
2017-Sep-20 09:00N 46°10' W 123°04'5 9.9
2017-Sep-20 08:31N 46°11' W 123°11'510.6
2017-Sep-20 08:00N 46°09' W 123°18'5 9.9
2017-Sep-20 07:30N 46°10' W 123°24'5 9.8
2017-Sep-20 07:00N 46°15' W 123°26'4 8.9
2017-Sep-20 06:30N 46°16' W 123°32'4 7.7
2017-Sep-20 06:00N 46°16' W 123°38'510.6
2017-Sep-20 05:30N 46°13' W 123°45'510.7
2017-Sep-20 05:00N 46°12' W 123°52'5 9.8
2017-Sep-20 04:30N 46°14' W 123°58'5 9.2
2017-Sep-20 04:00N 46°15' W 124°05'4 8.6
2017-Sep-20 03:30N 46°13' W 124°10'3 6.7
2017-Sep-20 03:00N 46°15' W 124°14'4 8.1
2017-Sep-20 02:30N 46°19' W 124°16'4 8.9
2017-Sep-20 02:00N 46°23' W 124°19'4 8.0
2017-Sep-20 01:30N 46°27' W 124°21'4 7.9
2017-Sep-20 01:00N 46°30' W 124°24'4 8.3
2017-Sep-20 00:30N 46°34' W 124°26'4 8.2
2017-Sep-20 00:00N 46°38' W 124°29'4 8.1
2017-Sep-19 23:30N 46°42' W 124°31'4 8.6
2017-Sep-19 23:00N 46°45' W 124°34'4 8.9
2017-Sep-19 22:30N 46°50' W 124°36'86 9.5
2017-Sep-19 13:28N 48°13' W 125°04'510.2
2017-Sep-19 13:00N 48°18' W 125°02'5 9.8
2017-Sep-19 12:27N 48°23' W 124°58'4 9.4
2017-Sep-19 12:00N 48°26' W 124°55'5 9.9
2017-Sep-19 11:30N 48°27' W 124°47'5 9.4
2017-Sep-19 11:00N 48°25' W 124°41'5 9.8
2017-Sep-19 10:30N 48°23' W 124°34'510.2
2017-Sep-19 10:00N 48°21' W 124°27'5 9.9
2017-Sep-19 09:30N 48°19' W 124°20'510.0
2017-Sep-19 09:00N 48°17' W 124°13'5 9.4
2017-Sep-19 08:30N 48°15' W 124°07'7 9.1
2017-Sep-19 07:45N 48°12' W 123°57'2 9.2
2017-Sep-19 07:30N 48°12' W 123°54'510.4
2017-Sep-19 07:00N 48°12' W 123°46'611.4
2017-Sep-19 06:30N 48°11' W 123°38'611.1
2017-Sep-19 06:00N 48°11' W 123°29'510.6
2017-Sep-19 05:30N 48°11' W 123°21'611.9
2017-Sep-19 05:00N 48°12' W 123°13'712.1
2017-Sep-19 04:28N 48°13' W 123°03'612.0
2017-Sep-19 04:00N 48°12' W 122°55'612.3
2017-Sep-19 03:29N 48°11' W 122°45'813.3
2017-Sep-19 02:54N 48°05' W 122°38'512.9
2017-Sep-19 02:30N 47°60' W 122°36'612.0
2017-Sep-19 02:00N 47°56' W 122°29'611.4
2017-Sep-19 01:30N 47°50' W 122°27'611.1
2017-Sep-19 01:00N 47°45' W 122°26'611.0
2017-Sep-19 00:30N 47°39' W 122°27'3 6.1
2017-Sep-18 23:58N 47°38' W 122°23'0 0.0
2017-Sep-18 23:29N 47°38' W 122°23'0 0.0
2017-Sep-18 22:58N 47°38' W 122°23'0 0.0
2017-Sep-18 22:29N 47°38' W 122°23'0 0.0
2017-Sep-18 21:58N 47°38' W 122°23'0 0.0
2017-Sep-18 21:29N 47°38' W 122°23'0 0.0
2017-Sep-18 20:59N 47°38' W 122°23'0 0.0
2017-Sep-18 20:28N 47°38' W 122°23'0 0.0
2017-Sep-18 19:59N 47°38' W 122°23'0 0.0
2017-Sep-18 19:29N 47°38' W 122°23'0 0.0
2017-Sep-18 18:59N 47°38' W 122°23'0 0.0
2017-Sep-18 18:28N 47°38' W 122°23'0 0.0
2017-Sep-18 17:58N 47°38' W 122°23'0 0.0
2017-Sep-18 17:28N 47°38' W 122°23'0 0.0
2017-Sep-18 16:58N 47°38' W 122°23'0 0.0
2017-Sep-18 16:29N 47°38' W 122°23'1 1.1
2017-Sep-18 16:00N 47°37' W 122°22'1 1.6
2017-Sep-18 15:30N 47°37' W 122°21'0 0.0
2017-Sep-18 15:00N 47°37' W 122°21'0 0.0
2017-Sep-18 14:30N 47°37' W 122°21'0 0.0
2017-Sep-18 14:00N 47°37' W 122°21'2 4.0
2017-Sep-18 13:30N 47°37' W 122°24'3 6.6
2017-Sep-18 13:00N 47°39' W 122°28'3 6.7
2017-Sep-18 12:30N 47°43' W 122°28'3 6.5
2017-Sep-18 12:00N 47°46' W 122°28'3 6.8
2017-Sep-18 11:30N 47°49' W 122°28'3 6.8
2017-Sep-18 11:00N 47°52' W 122°29'3 6.7
2017-Sep-18 10:29N 47°55' W 122°32'3 6.7
2017-Sep-18 10:00N 47°58' W 122°35'4 6.7
2017-Sep-18 09:28N 48°01' W 122°38'3 7.3
2017-Sep-18 09:00N 48°04' W 122°40'5 6.8
2017-Sep-18 08:15N 48°08' W 122°44'0 1.0
2017-Sep-18 07:54N 48°08' W 122°44'0 0.4
2017-Sep-18 07:30N 48°08' W 122°45'0 0.1
2017-Sep-18 06:19N 48°08' W 122°45'2 3.8
2017-Sep-18 05:41N 48°10' W 122°47'13 6.3
2017-Sep-18 03:41N 48°20' W 122°59'4 8.3
2017-Sep-18 03:15N 48°23' W 122°58'2 9.2
2017-Sep-18 02:59N 48°25' W 122°57'510.4
2017-Sep-18 02:30N 48°30' W 122°58'3 0.8
2017-Sep-17 22:51N 48°32' W 123°01'1 3.5
2017-Sep-17 22:30N 48°33' W 122°59'3 4.9
2017-Sep-17 21:59N 48°35' W 123°02'3 6.1
2017-Sep-17 21:29N 48°37' W 123°05'4 7.6
2017-Sep-17 21:00N 48°39' W 123°10'3 5.4
2017-Sep-17 20:30N 48°38' W 123°06'5 9.6
2017-Sep-17 20:00N 48°41' W 122°60'4 8.8
2017-Sep-17 19:30N 48°46' W 122°59'4 7.6
2017-Sep-17 19:00N 48°49' W 123°02'5 9.5
2017-Sep-17 18:30N 48°52' W 123°07'5 9.7
2017-Sep-17 18:00N 48°55' W 123°13'4 7.8
2017-Sep-17 17:30N 48°59' W 123°15'3 5.7
2017-Sep-17 17:00N 49°01' W 123°18'4 8.0
2017-Sep-17 16:30N 49°02' W 123°24'4 8.6
2017-Sep-17 16:00N 49°05' W 123°29'5 8.9
2017-Sep-17 15:29N 49°08' W 123°34'4 8.5
2017-Sep-17 15:00N 49°11' W 123°38'4 8.4
2017-Sep-17 14:29N 49°13' W 123°44'4 8.5
2017-Sep-17 14:00N 49°14' W 123°50'5 9.1
2017-Sep-17 13:30N 49°16' W 123°56'510.0
2017-Sep-17 13:00N 49°18' W 124°03'5 9.5
2017-Sep-17 12:30N 49°20' W 124°10'5 9.0
2017-Sep-17 12:00N 49°23' W 124°16'4 8.9
2017-Sep-17 11:30N 49°26' W 124°20'4 8.5
2017-Sep-17 11:00N 49°29' W 124°25'4 8.5
2017-Sep-17 10:30N 49°32' W 124°29'4 8.9
2017-Sep-17 10:00N 49°36' W 124°34'4 9.0
2017-Sep-17 09:30N 49°38' W 124°39'4 8.7
2017-Sep-17 09:00N 49°41' W 124°45'4 8.4
2017-Sep-17 08:30N 49°44' W 124°49'4 8.5
2017-Sep-17 08:00N 49°47' W 124°54'5 8.9
2017-Sep-17 07:30N 49°50' W 124°58'4 8.8
2017-Sep-17 07:00N 49°54' W 125°03'5 8.9
2017-Sep-17 06:30N 49°57' W 125°07'4 9.2
2017-Sep-17 06:00N 50°00' W 125°12'510.2
2017-Sep-17 05:30N 50°05' W 125°16'5 9.0
2017-Sep-17 05:00N 50°07' W 125°21'5 9.2
2017-Sep-17 04:30N 50°12' W 125°22'5 9.3
2017-Sep-17 03:59N 50°17' W 125°24'4 8.0
2017-Sep-17 03:26N 50°20' W 125°28'4 8.1
2017-Sep-17 02:57N 50°22' W 125°34'23 7.5
2017-Sep-16 23:54N 50°28' W 126°08'4 9.1
2017-Sep-16 23:28N 50°29' W 126°14'3 5.8
2017-Sep-16 23:00N 50°30' W 126°18'5 9.2
2017-Sep-16 22:28N 50°30' W 126°26'5 9.9
2017-Sep-16 21:59N 50°30' W 126°34'5 9.7
2017-Sep-16 21:29N 50°32' W 126°41'5 9.7
2017-Sep-16 21:00N 50°34' W 126°48'1 1.1
2017-Sep-16 20:25N 50°33' W 126°49'2 4.3
2017-Sep-16 20:00N 50°33' W 126°51'3 5.9
2017-Sep-16 19:28N 50°35' W 126°56'0 0.0
2017-Sep-16 18:58N 50°35' W 126°56'0 0.0
2017-Sep-16 17:22N 50°35' W 126°56'0 0.0
2017-Sep-16 16:48N 50°35' W 126°56'0 0.0
2017-Sep-16 16:30N 50°35' W 126°56'0 0.0
2017-Sep-16 16:00N 50°35' W 126°56'0 0.0
2017-Sep-16 15:30N 50°35' W 126°56'0 0.0
2017-Sep-16 15:00N 50°35' W 126°56'0 0.0
2017-Sep-16 14:29N 50°35' W 126°56'4 8.2
2017-Sep-16 13:59N 50°36' W 127°02'5 9.6
2017-Sep-16 13:30N 50°37' W 127°09'4 7.6
2017-Sep-16 13:00N 50°40' W 127°14'4 8.1
2017-Sep-16 12:26N 50°44' W 127°17'3 7.5
2017-Sep-16 12:00N 50°47' W 127°20'4 7.3
2017-Sep-16 11:30N 50°50' W 127°22'4 7.3
2017-Sep-16 11:00N 50°53' W 127°25'4 7.3
2017-Sep-16 10:30N 50°55' W 127°30'4 7.2
2017-Sep-16 10:00N 50°58' W 127°33'4 7.3
2017-Sep-16 09:30N 51°01' W 127°36'4 7.7
2017-Sep-16 09:00N 51°04' W 127°41'4 8.4
2017-Sep-16 08:30N 51°07' W 127°46'5 9.7
2017-Sep-16 08:00N 51°10' W 127°52'5 9.3
2017-Sep-16 07:30N 51°13' W 127°57'3 6.7
2017-Sep-16 07:00N 51°16' W 127°55'3 6.1
2017-Sep-16 06:30N 51°19' W 127°56'511.1
2017-Sep-16 06:00N 51°24' W 127°52'611.0
2017-Sep-16 05:30N 51°29' W 127°51'510.3
2017-Sep-16 05:00N 51°34' W 127°52'611.1
2017-Sep-16 04:30N 51°40' W 127°54'611.1
2017-Sep-16 04:00N 51°45' W 127°55'510.9
2017-Sep-16 03:30N 51°51' W 127°56'510.5
2017-Sep-16 03:00N 51°56' W 127°56'510.2
2017-Sep-16 02:30N 52°01' W 127°56'4 8.9
2017-Sep-16 02:00N 52°05' W 128°00'5 9.6
2017-Sep-16 01:30N 52°06' W 128°07'4 8.4
2017-Sep-16 01:00N 52°10' W 128°08'4 7.9
2017-Sep-16 00:30N 52°14' W 128°11'510.3
2017-Sep-16 00:00N 52°15' W 128°20'6 9.4
2017-Sep-15 23:20N 52°18' W 128°28'410.3
2017-Sep-15 22:59N 52°21' W 128°31'4 9.4
2017-Sep-15 22:30N 52°25' W 128°29'78 6.3
2017-Sep-15 09:59N 53°25' W 129°55'911.4
2017-Sep-15 09:11N 53°31' W 130°06'210.6
2017-Sep-15 08:59N 53°32' W 130°08'1510.5
2017-Sep-15 07:32N 53°40' W 130°31'0 9.7
2017-Sep-15 07:30N 53°40' W 130°32'7 9.7
2017-Sep-15 06:47N 53°41' W 130°43'310.2
2017-Sep-15 06:30N 53°41' W 130°48'510.4
2017-Sep-15 06:00N 53°42' W 130°57'5 9.7
2017-Sep-15 05:29N 53°43' W 131°05'6 9.7
2017-Sep-15 04:53N 53°40' W 131°13'35 8.7
2017-Sep-15 00:53N 53°16' W 131°57'43 2.6
2017-Sep-14 08:22N 52°42' W 131°13'5 8.5
2017-Sep-14 07:50N 52°38' W 131°11'13 8.1
2017-Sep-14 06:12N 52°26' W 131°03'3 7.4
2017-Sep-14 05:49N 52°23' W 131°02'2 7.4
2017-Sep-14 05:30N 52°21' W 131°01'4 7.9
2017-Sep-14 05:00N 52°17' W 130°59'4 8.1
2017-Sep-14 04:30N 52°13' W 130°57'3 6.4
2017-Sep-14 04:00N 52°10' W 130°59'4 7.6
2017-Sep-14 03:30N 52°10' W 131°05'4 6.6
2017-Sep-14 02:51N 52°07' W 131°10'2 4.6
2017-Sep-14 02:29N 52°06' W 131°12'  

Dump ship's entire track history